sensor_id;sensor_type;location;lat;lon;timestamp;temperature;humidity
12720;DHT22;6424;48.520;11.228;2024-01-30T00:00:07;-1.40;99.90
12720;DHT22;6424;48.520;11.228;2024-01-30T00:02:52;-1.40;99.90
12720;DHT22;6424;48.520;11.228;2024-01-30T00:05:36;-1.40;99.90
12720;DHT22;6424;48.520;11.228;2024-01-30T00:08:20;-1.40;99.90
12720;DHT22;6424;48.520;11.228;2024-01-30T00:11:04;-1.40;99.90
12720;DHT22;6424;48.520;11.228;2024-01-30T00:13:49;-1.40;99.90
12720;DHT22;6424;48.520;11.228;2024-01-30T00:16:34;-1.40;99.90
12720;DHT22;6424;48.520;11.228;2024-01-30T00:19:18;-1.50;99.90
12720;DHT22;6424;48.520;11.228;2024-01-30T00:22:04;-1.50;99.90
12720;DHT22;6424;48.520;11.228;2024-01-30T00:24:48;-1.50;99.90
12720;DHT22;6424;48.520;11.228;2024-01-30T00:27:32;-1.50;99.90
12720;DHT22;6424;48.520;11.228;2024-01-30T00:30:17;-1.50;99.90
12720;DHT22;6424;48.520;11.228;2024-01-30T00:33:01;-1.50;99.90
12720;DHT22;6424;48.520;11.228;2024-01-30T00:35:45;-1.50;99.90
12720;DHT22;6424;48.520;11.228;2024-01-30T00:38:29;-1.50;99.90
12720;DHT22;6424;48.520;11.228;2024-01-30T00:41:14;-1.50;99.90
12720;DHT22;6424;48.520;11.228;2024-01-30T00:43:58;-1.50;99.90
12720;DHT22;6424;48.520;11.228;2024-01-30T00:46:43;-1.50;99.90
12720;DHT22;6424;48.520;11.228;2024-01-30T00:49:27;-1.50;99.90
12720;DHT22;6424;48.520;11.228;2024-01-30T00:52:11;-1.50;99.90
12720;DHT22;6424;48.520;11.228;2024-01-30T00:54:55;-1.60;99.90
12720;DHT22;6424;48.520;11.228;2024-01-30T00:57:40;-1.60;99.90
12720;DHT22;6424;48.520;11.228;2024-01-30T01:00:25;-1.70;99.90
12720;DHT22;6424;48.520;11.228;2024-01-30T01:03:12;-1.70;99.90
12720;DHT22;6424;48.520;11.228;2024-01-30T01:05:57;-1.70;99.90
12720;DHT22;6424;48.520;11.228;2024-01-30T01:08:42;-1.70;99.90
12720;DHT22;6424;48.520;11.228;2024-01-30T01:11:26;-1.80;99.90
12720;DHT22;6424;48.520;11.228;2024-01-30T01:14:10;-1.80;99.90
12720;DHT22;6424;48.520;11.228;2024-01-30T01:16:55;-1.80;99.90
12720;DHT22;6424;48.520;11.228;2024-01-30T01:19:39;-1.80;99.90
12720;DHT22;6424;48.520;11.228;2024-01-30T01:22:23;-1.80;99.90
12720;DHT22;6424;48.520;11.228;2024-01-30T01:25:08;-1.80;99.90
12720;DHT22;6424;48.520;11.228;2024-01-30T01:27:54;-1.90;99.90
12720;DHT22;6424;48.520;11.228;2024-01-30T01:30:38;-1.90;99.90
12720;DHT22;6424;48.520;11.228;2024-01-30T01:33:23;-1.90;99.90
12720;DHT22;6424;48.520;11.228;2024-01-30T01:36:08;-2.00;99.90
12720;DHT22;6424;48.520;11.228;2024-01-30T01:41:36;-2.00;99.90
12720;DHT22;6424;48.520;11.228;2024-01-30T01:44:20;-2.00;99.90
12720;DHT22;6424;48.520;11.228;2024-01-30T01:47:05;-2.00;99.90
12720;DHT22;6424;48.520;11.228;2024-01-30T01:49:50;-1.90;99.90
12720;DHT22;6424;48.520;11.228;2024-01-30T01:52:34;-1.80;99.90
12720;DHT22;6424;48.520;11.228;2024-01-30T01:55:21;-1.80;99.90
12720;DHT22;6424;48.520;11.228;2024-01-30T01:58:07;-1.90;99.90
12720;DHT22;6424;48.520;11.228;2024-01-30T02:00:53;-1.90;99.90
12720;DHT22;6424;48.520;11.228;2024-01-30T02:03:38;-1.90;99.90
12720;DHT22;6424;48.520;11.228;2024-01-30T02:06:22;-2.00;99.90
12720;DHT22;6424;48.520;11.228;2024-01-30T02:09:07;-2.00;99.90
12720;DHT22;6424;48.520;11.228;2024-01-30T02:11:53;-2.00;99.90
12720;DHT22;6424;48.520;11.228;2024-01-30T02:14:45;-2.00;99.90
12720;DHT22;6424;48.520;11.228;2024-01-30T02:17:30;-2.10;99.90
12720;DHT22;6424;48.520;11.228;2024-01-30T02:20:15;-2.10;99.90
12720;DHT22;6424;48.520;11.228;2024-01-30T02:23:01;-2.10;99.90
12720;DHT22;6424;48.520;11.228;2024-01-30T02:25:46;-2.10;99.90
12720;DHT22;6424;48.520;11.228;2024-01-30T02:28:31;-2.10;99.90
12720;DHT22;6424;48.520;11.228;2024-01-30T02:31:15;-2.20;99.90
12720;DHT22;6424;48.520;11.228;2024-01-30T02:33:59;-2.20;99.90
12720;DHT22;6424;48.520;11.228;2024-01-30T02:36:44;-2.20;99.90
12720;DHT22;6424;48.520;11.228;2024-01-30T02:39:28;-2.20;99.90
12720;DHT22;6424;48.520;11.228;2024-01-30T02:42:13;-2.30;99.90
12720;DHT22;6424;48.520;11.228;2024-01-30T02:44:57;-2.30;99.90
12720;DHT22;6424;48.520;11.228;2024-01-30T02:47:41;-2.30;99.90
12720;DHT22;6424;48.520;11.228;2024-01-30T02:50:25;-2.30;99.90
12720;DHT22;6424;48.520;11.228;2024-01-30T02:53:09;-2.30;99.90
12720;DHT22;6424;48.520;11.228;2024-01-30T02:55:54;-2.30;99.90
12720;DHT22;6424;48.520;11.228;2024-01-30T02:58:38;-2.30;99.90
12720;DHT22;6424;48.520;11.228;2024-01-30T03:01:22;-2.30;99.90
12720;DHT22;6424;48.520;11.228;2024-01-30T03:04:08;-2.30;99.90
12720;DHT22;6424;48.520;11.228;2024-01-30T03:06:52;-2.30;99.90
12720;DHT22;6424;48.520;11.228;2024-01-30T03:09:37;-2.40;99.90
12720;DHT22;6424;48.520;11.228;2024-01-30T03:12:22;-2.40;99.90
12720;DHT22;6424;48.520;11.228;2024-01-30T03:15:06;-2.40;99.90
12720;DHT22;6424;48.520;11.228;2024-01-30T03:17:51;-2.40;99.90
12720;DHT22;6424;48.520;11.228;2024-01-30T03:20:35;-2.40;99.90
12720;DHT22;6424;48.520;11.228;2024-01-30T03:23:20;-2.50;99.90
12720;DHT22;6424;48.520;11.228;2024-01-30T03:26:04;-2.50;99.90
12720;DHT22;6424;48.520;11.228;2024-01-30T03:28:50;-2.40;99.90
12720;DHT22;6424;48.520;11.228;2024-01-30T03:31:35;-2.40;99.90
12720;DHT22;6424;48.520;11.228;2024-01-30T03:34:19;-2.40;99.90
12720;DHT22;6424;48.520;11.228;2024-01-30T03:37:03;-2.50;99.90
12720;DHT22;6424;48.520;11.228;2024-01-30T03:39:49;-2.40;99.90
12720;DHT22;6424;48.520;11.228;2024-01-30T03:42:34;-2.40;99.90
12720;DHT22;6424;48.520;11.228;2024-01-30T03:45:18;-2.40;99.90
12720;DHT22;6424;48.520;11.228;2024-01-30T03:48:03;-2.40;99.90
12720;DHT22;6424;48.520;11.228;2024-01-30T03:50:48;-2.50;99.90
12720;DHT22;6424;48.520;11.228;2024-01-30T03:53:32;-2.50;99.90
12720;DHT22;6424;48.520;11.228;2024-01-30T03:56:16;-2.50;99.90
12720;DHT22;6424;48.520;11.228;2024-01-30T03:59:00;-2.50;99.90
12720;DHT22;6424;48.520;11.228;2024-01-30T04:01:47;-2.60;99.90
12720;DHT22;6424;48.520;11.228;2024-01-30T04:04:31;-2.60;99.90
12720;DHT22;6424;48.520;11.228;2024-01-30T04:07:15;-2.60;99.90
12720;DHT22;6424;48.520;11.228;2024-01-30T04:09:59;-2.60;99.90
12720;DHT22;6424;48.520;11.228;2024-01-30T04:12:44;-2.60;99.90
12720;DHT22;6424;48.520;11.228;2024-01-30T04:15:28;-2.60;99.90
12720;DHT22;6424;48.520;11.228;2024-01-30T04:18:13;-2.60;99.90
12720;DHT22;6424;48.520;11.228;2024-01-30T04:20:57;-2.60;99.90
12720;DHT22;6424;48.520;11.228;2024-01-30T04:23:42;-2.60;99.90
12720;DHT22;6424;48.520;11.228;2024-01-30T04:26:26;-2.60;99.90
12720;DHT22;6424;48.520;11.228;2024-01-30T04:29:10;-2.60;99.90
12720;DHT22;6424;48.520;11.228;2024-01-30T04:31:54;-2.60;99.90
12720;DHT22;6424;48.520;11.228;2024-01-30T04:34:38;-2.60;99.90
12720;DHT22;6424;48.520;11.228;2024-01-30T04:37:23;-2.60;99.90
12720;DHT22;6424;48.520;11.228;2024-01-30T04:40:08;-2.60;99.90
12720;DHT22;6424;48.520;11.228;2024-01-30T04:42:53;-2.60;99.90
12720;DHT22;6424;48.520;11.228;2024-01-30T04:45:37;-2.60;99.90
12720;DHT22;6424;48.520;11.228;2024-01-30T04:48:21;-2.70;99.90
12720;DHT22;6424;48.520;11.228;2024-01-30T04:51:05;-2.60;99.90
12720;DHT22;6424;48.520;11.228;2024-01-30T04:53:50;-2.70;99.90
12720;DHT22;6424;48.520;11.228;2024-01-30T04:56:34;-2.60;99.90
12720;DHT22;6424;48.520;11.228;2024-01-30T04:59:20;-2.70;99.90
12720;DHT22;6424;48.520;11.228;2024-01-30T05:02:04;-2.70;99.90
12720;DHT22;6424;48.520;11.228;2024-01-30T05:04:49;-2.70;99.90
12720;DHT22;6424;48.520;11.228;2024-01-30T05:07:33;-2.60;99.90
12720;DHT22;6424;48.520;11.228;2024-01-30T05:10:18;-2.70;99.90
12720;DHT22;6424;48.520;11.228;2024-01-30T05:13:02;-2.70;99.90
12720;DHT22;6424;48.520;11.228;2024-01-30T05:15:47;-2.70;99.90
12720;DHT22;6424;48.520;11.228;2024-01-30T05:18:31;-2.70;99.90
12720;DHT22;6424;48.520;11.228;2024-01-30T05:21:16;-2.70;99.90
12720;DHT22;6424;48.520;11.228;2024-01-30T05:24:00;-2.70;99.90
12720;DHT22;6424;48.520;11.228;2024-01-30T05:26:44;-2.70;99.90
12720;DHT22;6424;48.520;11.228;2024-01-30T05:29:29;-2.70;99.90
12720;DHT22;6424;48.520;11.228;2024-01-30T05:32:13;-2.70;99.90
12720;DHT22;6424;48.520;11.228;2024-01-30T05:34:57;-2.70;99.90
12720;DHT22;6424;48.520;11.228;2024-01-30T05:37:42;-2.80;99.90
12720;DHT22;6424;48.520;11.228;2024-01-30T05:40:27;-2.80;99.90
12720;DHT22;6424;48.520;11.228;2024-01-30T05:43:12;-2.70;99.90
12720;DHT22;6424;48.520;11.228;2024-01-30T05:45:56;-2.80;99.90
12720;DHT22;6424;48.520;11.228;2024-01-30T05:48:41;-2.80;99.90
12720;DHT22;6424;48.520;11.228;2024-01-30T05:51:26;-2.80;99.90
12720;DHT22;6424;48.520;11.228;2024-01-30T05:54:10;-2.80;99.90
12720;DHT22;6424;48.520;11.228;2024-01-30T05:56:55;-2.80;99.90
12720;DHT22;6424;48.520;11.228;2024-01-30T05:59:39;-2.80;99.90
12720;DHT22;6424;48.520;11.228;2024-01-30T06:02:23;-2.70;99.90
12720;DHT22;6424;48.520;11.228;2024-01-30T06:05:07;-2.80;99.90
12720;DHT22;6424;48.520;11.228;2024-01-30T06:07:52;-2.80;99.90
12720;DHT22;6424;48.520;11.228;2024-01-30T06:10:36;-2.80;99.90
12720;DHT22;6424;48.520;11.228;2024-01-30T06:13:20;-2.80;99.90
12720;DHT22;6424;48.520;11.228;2024-01-30T06:16:04;-2.80;99.90
12720;DHT22;6424;48.520;11.228;2024-01-30T06:18:50;-2.80;99.90
12720;DHT22;6424;48.520;11.228;2024-01-30T06:21:34;-2.80;99.90
12720;DHT22;6424;48.520;11.228;2024-01-30T06:24:20;-2.90;99.90
12720;DHT22;6424;48.520;11.228;2024-01-30T06:27:04;-2.90;99.90
12720;DHT22;6424;48.520;11.228;2024-01-30T06:29:48;-2.90;99.90
12720;DHT22;6424;48.520;11.228;2024-01-30T06:32:33;-2.90;99.90
12720;DHT22;6424;48.520;11.228;2024-01-30T06:35:18;-2.90;99.90
12720;DHT22;6424;48.520;11.228;2024-01-30T06:38:03;-2.90;99.90
12720;DHT22;6424;48.520;11.228;2024-01-30T06:40:47;-2.90;99.90
12720;DHT22;6424;48.520;11.228;2024-01-30T06:43:32;-2.90;99.90
12720;DHT22;6424;48.520;11.228;2024-01-30T06:46:16;-2.90;99.90
12720;DHT22;6424;48.520;11.228;2024-01-30T06:49:01;-2.90;99.90
12720;DHT22;6424;48.520;11.228;2024-01-30T06:51:46;-2.80;99.90
12720;DHT22;6424;48.520;11.228;2024-01-30T06:54:30;-2.80;99.90
12720;DHT22;6424;48.520;11.228;2024-01-30T06:57:15;-2.80;99.90
12720;DHT22;6424;48.520;11.228;2024-01-30T07:00:00;-2.80;99.90
12720;DHT22;6424;48.520;11.228;2024-01-30T07:02:44;-2.80;99.90
12720;DHT22;6424;48.520;11.228;2024-01-30T07:05:28;-2.80;99.90
12720;DHT22;6424;48.520;11.228;2024-01-30T07:08:13;-2.80;99.90
12720;DHT22;6424;48.520;11.228;2024-01-30T07:10:57;-2.70;99.90
12720;DHT22;6424;48.520;11.228;2024-01-30T07:13:42;-2.60;99.90
12720;DHT22;6424;48.520;11.228;2024-01-30T07:16:26;-2.60;99.90
12720;DHT22;6424;48.520;11.228;2024-01-30T07:19:10;-2.60;99.90
12720;DHT22;6424;48.520;11.228;2024-01-30T07:21:54;-2.50;99.90
12720;DHT22;6424;48.520;11.228;2024-01-30T07:24:43;-2.50;99.90
12720;DHT22;6424;48.520;11.228;2024-01-30T07:27:29;-2.40;99.90
12720;DHT22;6424;48.520;11.228;2024-01-30T07:30:13;-2.40;99.90
12720;DHT22;6424;48.520;11.228;2024-01-30T07:32:58;-2.30;99.90
12720;DHT22;6424;48.520;11.228;2024-01-30T07:35:42;-2.30;99.90
12720;DHT22;6424;48.520;11.228;2024-01-30T07:38:26;-2.20;99.90
12720;DHT22;6424;48.520;11.228;2024-01-30T07:41:10;-2.00;99.90
12720;DHT22;6424;48.520;11.228;2024-01-30T07:43:54;-1.50;99.90
12720;DHT22;6424;48.520;11.228;2024-01-30T07:46:38;-0.70;99.90
12720;DHT22;6424;48.520;11.228;2024-01-30T07:49:23;0.10;99.90
12720;DHT22;6424;48.520;11.228;2024-01-30T07:52:07;0.70;99.90
12720;DHT22;6424;48.520;11.228;2024-01-30T07:54:51;1.30;99.90
12720;DHT22;6424;48.520;11.228;2024-01-30T07:57:38;1.70;99.90
12720;DHT22;6424;48.520;11.228;2024-01-30T08:00:22;1.90;99.90
12720;DHT22;6424;48.520;11.228;2024-01-30T08:03:07;2.00;99.90
12720;DHT22;6424;48.520;11.228;2024-01-30T08:05:51;2.00;99.90
12720;DHT22;6424;48.520;11.228;2024-01-30T08:08:35;2.00;99.90
12720;DHT22;6424;48.520;11.228;2024-01-30T08:11:21;1.90;99.90
12720;DHT22;6424;48.520;11.228;2024-01-30T08:14:09;1.70;99.90
12720;DHT22;6424;48.520;11.228;2024-01-30T08:16:54;1.60;99.90
12720;DHT22;6424;48.520;11.228;2024-01-30T08:19:39;1.50;99.90
12720;DHT22;6424;48.520;11.228;2024-01-30T08:22:23;1.40;99.90
12720;DHT22;6424;48.520;11.228;2024-01-30T08:25:17;1.40;99.90
12720;DHT22;6424;48.520;11.228;2024-01-30T08:28:01;1.40;99.90
12720;DHT22;6424;48.520;11.228;2024-01-30T08:30:45;1.40;99.90
12720;DHT22;6424;48.520;11.228;2024-01-30T08:33:29;1.40;99.90
12720;DHT22;6424;48.520;11.228;2024-01-30T08:36:13;1.40;99.90
12720;DHT22;6424;48.520;11.228;2024-01-30T08:38:58;1.40;99.90
12720;DHT22;6424;48.520;11.228;2024-01-30T08:41:42;1.50;99.90
12720;DHT22;6424;48.520;11.228;2024-01-30T08:44:27;1.60;99.90
12720;DHT22;6424;48.520;11.228;2024-01-30T08:47:11;1.70;99.90
12720;DHT22;6424;48.520;11.228;2024-01-30T08:49:56;1.80;99.90
12720;DHT22;6424;48.520;11.228;2024-01-30T08:52:41;1.80;99.90
12720;DHT22;6424;48.520;11.228;2024-01-30T08:55:25;1.90;99.90
12720;DHT22;6424;48.520;11.228;2024-01-30T08:58:10;1.90;99.90
12720;DHT22;6424;48.520;11.228;2024-01-30T09:00:54;2.00;99.90
12720;DHT22;6424;48.520;11.228;2024-01-30T09:03:39;2.10;99.90
12720;DHT22;6424;48.520;11.228;2024-01-30T09:06:25;2.20;99.90
12720;DHT22;6424;48.520;11.228;2024-01-30T09:09:12;2.30;99.90
12720;DHT22;6424;48.520;11.228;2024-01-30T09:11:56;2.40;99.90
12720;DHT22;6424;48.520;11.228;2024-01-30T09:14:42;2.50;99.90
12720;DHT22;6424;48.520;11.228;2024-01-30T09:17:26;2.60;99.90
12720;DHT22;6424;48.520;11.228;2024-01-30T09:20:11;2.70;99.90
12720;DHT22;6424;48.520;11.228;2024-01-30T09:22:55;2.90;99.90
12720;DHT22;6424;48.520;11.228;2024-01-30T09:25:39;3.00;99.90
12720;DHT22;6424;48.520;11.228;2024-01-30T09:28:24;3.10;99.90
12720;DHT22;6424;48.520;11.228;2024-01-30T09:31:12;3.20;99.90
12720;DHT22;6424;48.520;11.228;2024-01-30T09:33:56;3.30;99.90
12720;DHT22;6424;48.520;11.228;2024-01-30T09:36:40;3.40;99.90
12720;DHT22;6424;48.520;11.228;2024-01-30T09:39:25;3.50;99.90
12720;DHT22;6424;48.520;11.228;2024-01-30T09:42:31;3.70;99.90
12720;DHT22;6424;48.520;11.228;2024-01-30T09:45:24;3.80;99.90
12720;DHT22;6424;48.520;11.228;2024-01-30T09:48:09;3.90;99.90
12720;DHT22;6424;48.520;11.228;2024-01-30T09:50:53;3.90;99.90
12720;DHT22;6424;48.520;11.228;2024-01-30T09:53:39;4.00;99.90
12720;DHT22;6424;48.520;11.228;2024-01-30T09:56:24;4.10;99.90
12720;DHT22;6424;48.520;11.228;2024-01-30T09:59:09;4.10;99.90
12720;DHT22;6424;48.520;11.228;2024-01-30T10:01:54;4.20;99.90
12720;DHT22;6424;48.520;11.228;2024-01-30T10:04:38;4.30;99.90
12720;DHT22;6424;48.520;11.228;2024-01-30T10:07:23;4.40;99.90
12720;DHT22;6424;48.520;11.228;2024-01-30T10:10:07;4.50;99.90
12720;DHT22;6424;48.520;11.228;2024-01-30T10:12:52;4.60;99.90
12720;DHT22;6424;48.520;11.228;2024-01-30T10:15:37;4.60;99.90
12720;DHT22;6424;48.520;11.228;2024-01-30T10:18:22;4.70;99.90
12720;DHT22;6424;48.520;11.228;2024-01-30T10:21:08;4.70;99.90
12720;DHT22;6424;48.520;11.228;2024-01-30T10:23:54;4.80;99.90
12720;DHT22;6424;48.520;11.228;2024-01-30T10:26:38;4.80;99.90
12720;DHT22;6424;48.520;11.228;2024-01-30T10:29:22;4.90;99.90
12720;DHT22;6424;48.520;11.228;2024-01-30T10:32:07;4.90;99.90
12720;DHT22;6424;48.520;11.228;2024-01-30T10:34:51;5.10;99.90
12720;DHT22;6424;48.520;11.228;2024-01-30T10:37:35;5.20;99.90
12720;DHT22;6424;48.520;11.228;2024-01-30T10:40:21;5.30;99.90
12720;DHT22;6424;48.520;11.228;2024-01-30T10:43:11;5.40;99.90
12720;DHT22;6424;48.520;11.228;2024-01-30T10:45:57;5.50;99.90
12720;DHT22;6424;48.520;11.228;2024-01-30T10:49:05;5.70;99.90
12720;DHT22;6424;48.520;11.228;2024-01-30T10:51:50;5.70;99.90
12720;DHT22;6424;48.520;11.228;2024-01-30T10:54:36;5.70;99.90
12720;DHT22;6424;48.520;11.228;2024-01-30T10:57:25;5.70;99.90
12720;DHT22;6424;48.520;11.228;2024-01-30T11:00:11;5.80;99.90
12720;DHT22;6424;48.520;11.228;2024-01-30T11:02:59;5.80;99.90
12720;DHT22;6424;48.520;11.228;2024-01-30T11:05:49;5.90;99.90
12720;DHT22;6424;48.520;11.228;2024-01-30T11:08:35;6.00;99.90
12720;DHT22;6424;48.520;11.228;2024-01-30T11:11:20;6.10;99.90
12720;DHT22;6424;48.520;11.228;2024-01-30T11:14:05;6.20;99.90
12720;DHT22;6424;48.520;11.228;2024-01-30T11:16:49;6.30;99.90
12720;DHT22;6424;48.520;11.228;2024-01-30T11:19:34;6.40;99.90
12720;DHT22;6424;48.520;11.228;2024-01-30T11:22:20;6.60;99.90
12720;DHT22;6424;48.520;11.228;2024-01-30T11:25:05;6.70;99.90
12720;DHT22;6424;48.520;11.228;2024-01-30T11:27:56;6.90;99.90
12720;DHT22;6424;48.520;11.228;2024-01-30T11:30:40;7.10;99.90
12720;DHT22;6424;48.520;11.228;2024-01-30T11:33:29;7.10;99.90
12720;DHT22;6424;48.520;11.228;2024-01-30T11:36:18;7.20;99.90
12720;DHT22;6424;48.520;11.228;2024-01-30T11:39:05;7.20;99.90
12720;DHT22;6424;48.520;11.228;2024-01-30T11:41:51;7.20;99.90
12720;DHT22;6424;48.520;11.228;2024-01-30T11:44:39;7.20;99.90
12720;DHT22;6424;48.520;11.228;2024-01-30T11:47:23;7.20;99.90
12720;DHT22;6424;48.520;11.228;2024-01-30T11:50:09;7.20;99.90
12720;DHT22;6424;48.520;11.228;2024-01-30T11:52:54;7.20;99.90
12720;DHT22;6424;48.520;11.228;2024-01-30T11:55:39;7.20;99.90
12720;DHT22;6424;48.520;11.228;2024-01-30T11:58:25;7.30;99.90
12720;DHT22;6424;48.520;11.228;2024-01-30T12:01:11;7.40;99.90
12720;DHT22;6424;48.520;11.228;2024-01-30T12:03:55;7.40;99.90
12720;DHT22;6424;48.520;11.228;2024-01-30T12:06:41;7.50;99.90
12720;DHT22;6424;48.520;11.228;2024-01-30T12:09:25;7.50;99.90
12720;DHT22;6424;48.520;11.228;2024-01-30T12:12:11;7.60;99.90
12720;DHT22;6424;48.520;11.228;2024-01-30T12:14:56;7.70;99.90
12720;DHT22;6424;48.520;11.228;2024-01-30T12:17:40;7.80;99.90
12720;DHT22;6424;48.520;11.228;2024-01-30T12:20:25;7.80;99.90
12720;DHT22;6424;48.520;11.228;2024-01-30T12:23:09;7.80;99.90
12720;DHT22;6424;48.520;11.228;2024-01-30T12:25:56;7.90;99.90
12720;DHT22;6424;48.520;11.228;2024-01-30T12:28:48;7.90;99.90
12720;DHT22;6424;48.520;11.228;2024-01-30T12:31:33;8.00;99.90
12720;DHT22;6424;48.520;11.228;2024-01-30T12:34:17;8.00;99.90
12720;DHT22;6424;48.520;11.228;2024-01-30T12:37:04;8.00;99.90
12720;DHT22;6424;48.520;11.228;2024-01-30T12:39:53;7.90;99.90
12720;DHT22;6424;48.520;11.228;2024-01-30T12:42:38;7.90;99.90
12720;DHT22;6424;48.520;11.228;2024-01-30T12:45:22;7.90;99.90
12720;DHT22;6424;48.520;11.228;2024-01-30T12:48:07;7.90;99.90
12720;DHT22;6424;48.520;11.228;2024-01-30T12:50:52;7.90;99.90
12720;DHT22;6424;48.520;11.228;2024-01-30T12:53:36;7.90;99.90
12720;DHT22;6424;48.520;11.228;2024-01-30T12:56:20;7.90;99.90
12720;DHT22;6424;48.520;11.228;2024-01-30T12:59:04;8.00;99.90
12720;DHT22;6424;48.520;11.228;2024-01-30T13:01:48;8.00;99.90
12720;DHT22;6424;48.520;11.228;2024-01-30T13:04:33;8.10;99.90
12720;DHT22;6424;48.520;11.228;2024-01-30T13:07:17;8.20;99.90
12720;DHT22;6424;48.520;11.228;2024-01-30T13:10:02;8.30;99.90
12720;DHT22;6424;48.520;11.228;2024-01-30T13:12:47;8.30;99.90
12720;DHT22;6424;48.520;11.228;2024-01-30T13:15:32;8.30;99.90
12720;DHT22;6424;48.520;11.228;2024-01-30T13:18:16;8.30;99.90
12720;DHT22;6424;48.520;11.228;2024-01-30T13:21:01;8.30;99.90
12720;DHT22;6424;48.520;11.228;2024-01-30T13:23:45;8.30;99.90
12720;DHT22;6424;48.520;11.228;2024-01-30T13:26:31;8.40;99.90
12720;DHT22;6424;48.520;11.228;2024-01-30T13:29:16;8.40;99.90
12720;DHT22;6424;48.520;11.228;2024-01-30T13:32:00;8.50;99.90
12720;DHT22;6424;48.520;11.228;2024-01-30T13:34:45;8.50;99.90
12720;DHT22;6424;48.520;11.228;2024-01-30T13:37:29;8.50;99.90
12720;DHT22;6424;48.520;11.228;2024-01-30T13:40:14;8.50;99.90
12720;DHT22;6424;48.520;11.228;2024-01-30T13:43:00;8.50;99.90
12720;DHT22;6424;48.520;11.228;2024-01-30T13:45:44;8.40;99.90
12720;DHT22;6424;48.520;11.228;2024-01-30T13:48:31;8.40;99.90
12720;DHT22;6424;48.520;11.228;2024-01-30T13:51:15;8.40;99.90
12720;DHT22;6424;48.520;11.228;2024-01-30T13:54:01;8.40;99.90
12720;DHT22;6424;48.520;11.228;2024-01-30T13:56:45;8.30;99.90
12720;DHT22;6424;48.520;11.228;2024-01-30T13:59:29;8.30;99.90
12720;DHT22;6424;48.520;11.228;2024-01-30T14:02:13;8.30;99.90
12720;DHT22;6424;48.520;11.228;2024-01-30T14:04:58;8.30;99.90
12720;DHT22;6424;48.520;11.228;2024-01-30T14:07:43;8.20;99.90
12720;DHT22;6424;48.520;11.228;2024-01-30T14:10:27;8.10;99.90
12720;DHT22;6424;48.520;11.228;2024-01-30T14:13:12;8.10;99.90
12720;DHT22;6424;48.520;11.228;2024-01-30T14:15:56;8.20;99.90
12720;DHT22;6424;48.520;11.228;2024-01-30T14:18:41;8.20;99.90
12720;DHT22;6424;48.520;11.228;2024-01-30T14:21:25;8.30;99.90
12720;DHT22;6424;48.520;11.228;2024-01-30T14:24:09;8.30;99.90
12720;DHT22;6424;48.520;11.228;2024-01-30T14:26:54;8.30;99.90
12720;DHT22;6424;48.520;11.228;2024-01-30T14:29:38;8.30;99.90
12720;DHT22;6424;48.520;11.228;2024-01-30T14:32:23;8.30;99.90
12720;DHT22;6424;48.520;11.228;2024-01-30T14:35:07;8.30;99.90
12720;DHT22;6424;48.520;11.228;2024-01-30T14:37:52;8.30;99.90
12720;DHT22;6424;48.520;11.228;2024-01-30T14:40:38;8.20;99.90
12720;DHT22;6424;48.520;11.228;2024-01-30T14:43:22;8.10;99.90
12720;DHT22;6424;48.520;11.228;2024-01-30T14:46:07;8.10;99.90
12720;DHT22;6424;48.520;11.228;2024-01-30T14:48:51;8.00;99.90
12720;DHT22;6424;48.520;11.228;2024-01-30T14:51:35;8.00;99.90
12720;DHT22;6424;48.520;11.228;2024-01-30T14:54:20;7.90;99.90
12720;DHT22;6424;48.520;11.228;2024-01-30T14:57:04;7.90;99.90
12720;DHT22;6424;48.520;11.228;2024-01-30T14:59:49;7.90;99.90
12720;DHT22;6424;48.520;11.228;2024-01-30T15:02:34;7.90;99.90
12720;DHT22;6424;48.520;11.228;2024-01-30T15:05:19;7.90;99.90
12720;DHT22;6424;48.520;11.228;2024-01-30T15:08:03;7.90;99.90
12720;DHT22;6424;48.520;11.228;2024-01-30T15:10:48;7.80;99.90
12720;DHT22;6424;48.520;11.228;2024-01-30T15:13:33;7.80;99.90
12720;DHT22;6424;48.520;11.228;2024-01-30T15:16:17;7.70;99.90
12720;DHT22;6424;48.520;11.228;2024-01-30T15:19:02;7.70;99.90
12720;DHT22;6424;48.520;11.228;2024-01-30T15:21:47;7.60;99.90
12720;DHT22;6424;48.520;11.228;2024-01-30T15:24:31;7.60;99.90
12720;DHT22;6424;48.520;11.228;2024-01-30T15:27:16;7.50;99.90
12720;DHT22;6424;48.520;11.228;2024-01-30T15:30:00;7.60;99.90
12720;DHT22;6424;48.520;11.228;2024-01-30T15:32:44;7.50;99.90
12720;DHT22;6424;48.520;11.228;2024-01-30T15:35:29;7.40;99.90
12720;DHT22;6424;48.520;11.228;2024-01-30T15:38:14;7.30;99.90
12720;DHT22;6424;48.520;11.228;2024-01-30T15:40:59;7.20;99.90
12720;DHT22;6424;48.520;11.228;2024-01-30T15:43:43;7.10;99.90
12720;DHT22;6424;48.520;11.228;2024-01-30T15:46:28;7.00;99.90
12720;DHT22;6424;48.520;11.228;2024-01-30T15:49:12;6.80;99.90
12720;DHT22;6424;48.520;11.228;2024-01-30T15:51:56;6.70;99.90
12720;DHT22;6424;48.520;11.228;2024-01-30T15:54:40;6.60;99.90
12720;DHT22;6424;48.520;11.228;2024-01-30T15:57:25;6.60;99.90
12720;DHT22;6424;48.520;11.228;2024-01-30T16:00:11;6.50;99.90
12720;DHT22;6424;48.520;11.228;2024-01-30T16:02:56;6.30;99.90
12720;DHT22;6424;48.520;11.228;2024-01-30T16:05:42;6.20;99.90
12720;DHT22;6424;48.520;11.228;2024-01-30T16:08:26;6.00;99.90
12720;DHT22;6424;48.520;11.228;2024-01-30T16:11:10;5.80;99.90
12720;DHT22;6424;48.520;11.228;2024-01-30T16:13:54;5.70;99.90
12720;DHT22;6424;48.520;11.228;2024-01-30T16:16:38;5.50;99.90
12720;DHT22;6424;48.520;11.228;2024-01-30T16:19:23;5.40;99.90
12720;DHT22;6424;48.520;11.228;2024-01-30T16:22:08;5.20;99.90
12720;DHT22;6424;48.520;11.228;2024-01-30T16:24:52;5.10;99.90
12720;DHT22;6424;48.520;11.228;2024-01-30T16:27:37;5.00;99.90
12720;DHT22;6424;48.520;11.228;2024-01-30T16:30:20;4.80;99.90
12720;DHT22;6424;48.520;11.228;2024-01-30T16:33:05;4.70;99.90
12720;DHT22;6424;48.520;11.228;2024-01-30T16:35:49;4.60;99.90
12720;DHT22;6424;48.520;11.228;2024-01-30T16:38:33;4.50;99.90
12720;DHT22;6424;48.520;11.228;2024-01-30T16:41:17;4.40;99.90
12720;DHT22;6424;48.520;11.228;2024-01-30T16:44:01;4.30;99.90
12720;DHT22;6424;48.520;11.228;2024-01-30T16:46:46;4.20;99.90
12720;DHT22;6424;48.520;11.228;2024-01-30T16:49:30;4.10;99.90
12720;DHT22;6424;48.520;11.228;2024-01-30T16:52:14;4.00;99.90
12720;DHT22;6424;48.520;11.228;2024-01-30T16:54:58;3.90;99.90
12720;DHT22;6424;48.520;11.228;2024-01-30T16:57:42;3.90;99.90
12720;DHT22;6424;48.520;11.228;2024-01-30T17:00:27;3.80;99.90
12720;DHT22;6424;48.520;11.228;2024-01-30T17:03:11;3.70;99.90
12720;DHT22;6424;48.520;11.228;2024-01-30T17:05:55;3.70;99.90
12720;DHT22;6424;48.520;11.228;2024-01-30T17:08:42;3.60;99.90
12720;DHT22;6424;48.520;11.228;2024-01-30T17:11:26;3.50;99.90
12720;DHT22;6424;48.520;11.228;2024-01-30T17:14:11;3.40;99.90
12720;DHT22;6424;48.520;11.228;2024-01-30T17:16:58;3.30;99.90
12720;DHT22;6424;48.520;11.228;2024-01-30T17:19:43;3.20;99.90
12720;DHT22;6424;48.520;11.228;2024-01-30T17:22:27;3.20;99.90
12720;DHT22;6424;48.520;11.228;2024-01-30T17:25:13;3.10;99.90
12720;DHT22;6424;48.520;11.228;2024-01-30T17:27:57;3.10;99.90
12720;DHT22;6424;48.520;11.228;2024-01-30T17:30:42;3.10;99.90
12720;DHT22;6424;48.520;11.228;2024-01-30T17:33:27;3.00;99.90